AAL4338 KBOS-KDCA
Flight info
| Callsign | AAL4338 |
|---|---|
| Flight time | 1h 15m |
| Altitude | 30000 |
| Route | SSOXS7 SSOXS Q167 ZIZZI KNUKK ATR LAFLN DEALE3 |
| Aircraft | B38M/M-SDE1FGHILORVWXY/HB1 |
Departure
| Time | 2026-05-05 22:40 |
|---|---|
| Airport | Boston Logan International Airport (KBOS) |
Arrival
| Time | 2026-05-05 23:55 |
|---|---|
| Airport | Ronald Reagan Washington National Airport (KDCA) |
| Time | Latitude | Longitude | Altitude | Speed | Heading |
|---|---|---|---|---|---|
| 2026-05-05 21:57 | 42.36474 | -71.01514 | 25 ft | 0 kts | 17° |
| 2026-05-05 22:23 | 42.36472 | -71.01514 | 25 ft | 2 kts | 17° |
| 2026-05-05 22:23 | 42.36449 | -71.01528 | 28 ft | 4 kts | 43° |
| 2026-05-05 22:24 | 42.36437 | -71.01555 | 29 ft | 4 kts | 97° |
| 2026-05-05 22:24 | 42.36442 | -71.01573 | 29 ft | 1 kts | 124° |
| 2026-05-05 22:24 | 42.36443 | -71.01576 | 29 ft | 0 kts | 124° |
| 2026-05-05 22:27 | 42.36431 | -71.01552 | 28 ft | 7 kts | 123° |
| 2026-05-05 22:27 | 42.36404 | -71.01493 | 25 ft | 7 kts | 121° |
| 2026-05-05 22:28 | 42.36404 | -71.01492 | 25 ft | 0 kts | 121° |
| 2026-05-05 22:28 | 42.36395 | -71.01467 | 27 ft | 8 kts | 109° |
| 2026-05-05 22:28 | 42.36434 | -71.01388 | 26 ft | 13 kts | 27° |
| 2026-05-05 22:29 | 42.36534 | -71.01325 | 26 ft | 17 kts | 25° |
| 2026-05-05 22:29 | 42.36645 | -71.01269 | 27 ft | 17 kts | 15° |
| 2026-05-05 22:29 | 42.36761 | -71.01253 | 26 ft | 17 kts | 340° |
| 2026-05-05 22:29 | 42.36868 | -71.01247 | 28 ft | 17 kts | 41° |
| 2026-05-05 22:30 | 42.36961 | -71.01139 | 28 ft | 19 kts | 38° |
| 2026-05-05 22:30 | 42.37089 | -71.01045 | 24 ft | 22 kts | 25° |
| 2026-05-05 22:30 | 42.37235 | -71.00948 | 26 ft | 23 kts | 26° |
| 2026-05-05 22:30 | 42.37385 | -71.00867 | 26 ft | 24 kts | 19° |
| 2026-05-05 22:31 | 42.37540 | -71.00792 | 25 ft | 23 kts | 21° |
| 2026-05-05 22:31 | 42.37690 | -71.00719 | 24 ft | 22 kts | 19° |
| 2026-05-05 22:31 | 42.37774 | -71.00678 | 29 ft | 0 kts | 20° |
| 2026-05-05 22:32 | 42.37775 | -71.00678 | 28 ft | 1 kts | 19° |
| 2026-05-05 22:32 | 42.37776 | -71.00677 | 26 ft | 0 kts | 19° |
| 2026-05-05 22:33 | 42.37783 | -71.00674 | 26 ft | 4 kts | 19° |
| 2026-05-05 22:33 | 42.37819 | -71.00653 | 26 ft | 6 kts | 36° |
| 2026-05-05 22:33 | 42.37821 | -71.00650 | 24 ft | 1 kts | 39° |
| 2026-05-05 22:34 | 42.37827 | -71.00642 | 24 ft | 1 kts | 49° |
| 2026-05-05 22:36 | 42.37835 | -71.00624 | 27 ft | 7 kts | 68° |
| 2026-05-05 22:36 | 42.37832 | -71.00574 | 24 ft | 0 kts | 107° |
| 2026-05-05 22:38 | 42.37831 | -71.00568 | 27 ft | 5 kts | 107° |
| 2026-05-05 22:38 | 42.37802 | -71.00499 | 24 ft | 10 kts | 142° |
| 2026-05-05 22:38 | 42.37748 | -71.00495 | 29 ft | 0 kts | 196° |
| 2026-05-05 22:39 | 42.37666 | -71.00533 | 25 ft | 45 kts | 199° |
| 2026-05-05 22:39 | 42.37110 | -71.00801 | 27 ft | 122 kts | 200° |
| 2026-05-05 22:40 | 42.36132 | -71.01269 | 249 ft | 171 kts | 200° |
| 2026-05-05 22:40 | 42.34961 | -71.01680 | 1087 ft | 181 kts | 186° |
| 2026-05-05 22:40 | 42.33632 | -71.01543 | 1661 ft | 203 kts | 174° |
| 2026-05-05 22:40 | 42.32250 | -71.00852 | 2132 ft | 224 kts | 157° |
| 2026-05-05 22:41 | 42.31114 | -70.99283 | 2579 ft | 259 kts | 124° |
| 2026-05-05 22:41 | 42.30824 | -70.96755 | 3056 ft | 289 kts | 88° |
| 2026-05-05 22:41 | 42.31204 | -70.94040 | 3590 ft | 298 kts | 83° |
| 2026-05-05 22:41 | 42.31660 | -70.91272 | 4098 ft | 302 kts | 81° |
| 2026-05-05 22:42 | 42.32122 | -70.88542 | 4594 ft | 302 kts | 81° |
| 2026-05-05 22:42 | 42.32553 | -70.85767 | 5080 ft | 303 kts | 83° |
| 2026-05-05 22:42 | 42.32962 | -70.82968 | 5572 ft | 304 kts | 83° |
| 2026-05-05 22:42 | 42.33147 | -70.80143 | 6035 ft | 298 kts | 106° |
| 2026-05-05 22:43 | 42.32534 | -70.77538 | 6573 ft | 291 kts | 122° |
| 2026-05-05 22:43 | 42.31667 | -70.75024 | 7073 ft | 297 kts | 123° |
| 2026-05-05 22:43 | 42.30780 | -70.72498 | 7563 ft | 297 kts | 122° |
| 2026-05-05 22:43 | 42.29867 | -70.70002 | 8047 ft | 295 kts | 130° |
| 2026-05-05 22:44 | 42.28461 | -70.68143 | 8540 ft | 276 kts | 157° |
| 2026-05-05 22:44 | 42.26746 | -70.67056 | 9072 ft | 269 kts | 168° |
| 2026-05-05 22:44 | 42.24985 | -70.66256 | 9604 ft | 272 kts | 170° |
| 2026-05-05 22:44 | 42.23168 | -70.65478 | 10097 ft | 277 kts | 170° |
| 2026-05-05 22:45 | 42.21272 | -70.64655 | 10355 ft | 299 kts | 169° |
| 2026-05-05 22:45 | 42.19208 | -70.63738 | 10548 ft | 324 kts | 168° |
| 2026-05-05 22:45 | 42.16997 | -70.62738 | 10822 ft | 345 kts | 167° |
| 2026-05-05 22:45 | 42.14670 | -70.61814 | 11338 ft | 349 kts | 178° |
| 2026-05-05 22:46 | 42.12301 | -70.61993 | 12116 ft | 338 kts | 197° |
| 2026-05-05 22:46 | 42.10043 | -70.62854 | 12908 ft | 338 kts | 202° |
| 2026-05-05 22:46 | 42.07807 | -70.63907 | 13598 ft | 341 kts | 208° |
| 2026-05-05 22:46 | 42.05771 | -70.65505 | 14267 ft | 339 kts | 220° |
| 2026-05-05 22:47 | 42.04031 | -70.67628 | 15010 ft | 337 kts | 229° |
| 2026-05-05 22:47 | 42.02432 | -70.69956 | 15689 ft | 340 kts | 229° |
| 2026-05-05 22:47 | 42.00820 | -70.72324 | 16331 ft | 344 kts | 229° |
| 2026-05-05 22:47 | 41.99210 | -70.74688 | 17013 ft | 348 kts | 229° |
| 2026-05-05 22:48 | 41.97571 | -70.77090 | 17673 ft | 350 kts | 229° |
| 2026-05-05 22:48 | 41.95910 | -70.79517 | 18307 ft | 354 kts | 229° |
| 2026-05-05 22:48 | 41.94234 | -70.81958 | 18855 ft | 357 kts | 229° |
| 2026-05-05 22:48 | 41.92535 | -70.84426 | 19377 ft | 362 kts | 229° |
| 2026-05-05 22:49 | 41.90814 | -70.86921 | 19900 ft | 366 kts | 229° |
| 2026-05-05 22:49 | 41.89069 | -70.89450 | 20448 ft | 370 kts | 229° |
| 2026-05-05 22:49 | 41.87306 | -70.92001 | 20950 ft | 374 kts | 229° |
| 2026-05-05 22:49 | 41.85546 | -70.94543 | 21445 ft | 378 kts | 229° |
| 2026-05-05 22:50 | 41.83747 | -70.97139 | 21958 ft | 381 kts | 229° |
| 2026-05-05 22:50 | 41.81938 | -70.99748 | 22424 ft | 385 kts | 230° |
| 2026-05-05 22:50 | 41.80104 | -71.02390 | 22901 ft | 389 kts | 230° |
| 2026-05-05 22:50 | 41.78247 | -71.05063 | 23380 ft | 392 kts | 230° |
| 2026-05-05 22:51 | 41.76378 | -71.07751 | 23789 ft | 396 kts | 230° |
| 2026-05-05 22:51 | 41.74499 | -71.10450 | 24224 ft | 398 kts | 230° |
| 2026-05-05 22:51 | 41.72602 | -71.13172 | 24646 ft | 400 kts | 230° |
| 2026-05-05 22:51 | 41.70697 | -71.15904 | 25080 ft | 402 kts | 230° |
| 2026-05-05 22:52 | 41.68786 | -71.18640 | 25621 ft | 400 kts | 230° |
| 2026-05-05 22:52 | 41.66906 | -71.21328 | 26197 ft | 398 kts | 230° |
| 2026-05-05 22:52 | 41.65016 | -71.24029 | 26694 ft | 398 kts | 230° |
| 2026-05-05 22:52 | 41.63116 | -71.26743 | 27147 ft | 399 kts | 230° |
| 2026-05-05 22:53 | 41.61222 | -71.29446 | 27643 ft | 398 kts | 230° |
| 2026-05-05 22:53 | 41.59335 | -71.32135 | 28188 ft | 397 kts | 230° |
| 2026-05-05 22:53 | 41.57452 | -71.34817 | 28686 ft | 396 kts | 230° |
| 2026-05-05 22:53 | 41.55563 | -71.37505 | 29194 ft | 395 kts | 230° |
| 2026-05-05 22:54 | 41.53686 | -71.40174 | 29683 ft | 395 kts | 230° |
| 2026-05-05 22:54 | 41.51797 | -71.42858 | 29904 ft | 398 kts | 230° |
| 2026-05-05 22:54 | 41.49887 | -71.45573 | 29899 ft | 404 kts | 230° |
| 2026-05-05 22:55 | 41.45983 | -71.51115 | 29947 ft | 419 kts | 230° |
| 2026-05-05 22:55 | 41.41908 | -71.56886 | 29948 ft | 432 kts | 230° |
| 2026-05-05 22:56 | 41.37741 | -71.62771 | 29948 ft | 443 kts | 230° |
| 2026-05-05 22:56 | 41.33519 | -71.68715 | 29934 ft | 441 kts | 230° |
| 2026-05-05 22:57 | 41.29306 | -71.74636 | 29939 ft | 440 kts | 230° |
| 2026-05-05 22:57 | 41.25098 | -71.80541 | 29943 ft | 439 kts | 230° |
| 2026-05-05 22:58 | 41.20897 | -71.86426 | 29935 ft | 438 kts | 230° |
| 2026-05-05 22:58 | 41.16724 | -71.92260 | 29922 ft | 438 kts | 230° |
| 2026-05-05 22:59 | 41.12508 | -71.98145 | 29942 ft | 442 kts | 230° |
| 2026-05-05 22:59 | 41.08214 | -72.04128 | 29938 ft | 451 kts | 230° |
| 2026-05-05 23:00 | 41.01751 | -72.13100 | 29932 ft | 449 kts | 230° |
| 2026-05-05 23:00 | 40.97435 | -72.19079 | 29926 ft | 449 kts | 229° |
| 2026-05-05 23:01 | 40.93850 | -72.24038 | 29939 ft | 448 kts | 229° |
| 2026-05-05 23:01 | 40.88820 | -72.30982 | 29937 ft | 450 kts | 230° |
| 2026-05-05 23:02 | 40.85177 | -72.36000 | 29944 ft | 452 kts | 230° |
| 2026-05-05 23:02 | 40.80838 | -72.41968 | 29946 ft | 454 kts | 230° |
| 2026-05-05 23:03 | 40.76463 | -72.47971 | 29932 ft | 449 kts | 230° |
| 2026-05-05 23:03 | 40.72143 | -72.53894 | 29953 ft | 448 kts | 230° |
| 2026-05-05 23:04 | 40.67757 | -72.59775 | 29951 ft | 451 kts | 227° |
| 2026-05-05 23:04 | 40.63021 | -72.65265 | 29946 ft | 454 kts | 224° |
| 2026-05-05 23:05 | 40.58238 | -72.70620 | 29955 ft | 456 kts | 225° |
| 2026-05-05 23:05 | 40.53422 | -72.76082 | 29958 ft | 457 kts | 225° |
| 2026-05-05 23:06 | 40.48613 | -72.81582 | 29943 ft | 458 kts | 225° |
| 2026-05-05 23:06 | 40.43819 | -72.87066 | 29946 ft | 459 kts | 225° |
| 2026-05-05 23:07 | 40.38969 | -72.92600 | 29956 ft | 460 kts | 225° |
| 2026-05-05 23:07 | 40.34178 | -72.98054 | 29944 ft | 455 kts | 225° |
| 2026-05-05 23:08 | 40.29439 | -73.03442 | 29929 ft | 449 kts | 225° |
| 2026-05-05 23:08 | 40.24673 | -73.08849 | 29957 ft | 454 kts | 225° |
| 2026-05-05 23:09 | 40.19897 | -73.14246 | 29948 ft | 458 kts | 225° |
| 2026-05-05 23:09 | 40.15055 | -73.19709 | 29955 ft | 461 kts | 225° |
| 2026-05-05 23:10 | 40.10187 | -73.25194 | 29947 ft | 462 kts | 225° |
| 2026-05-05 23:10 | 40.05332 | -73.30643 | 29959 ft | 461 kts | 224° |
| 2026-05-05 23:11 | 40.00523 | -73.36019 | 29954 ft | 450 kts | 224° |
| 2026-05-05 23:11 | 39.95763 | -73.41345 | 29971 ft | 451 kts | 224° |
| 2026-05-05 23:12 | 39.91008 | -73.46661 | 29954 ft | 453 kts | 225° |
| 2026-05-05 23:12 | 39.86201 | -73.52022 | 29969 ft | 455 kts | 224° |
| 2026-05-05 23:13 | 39.81379 | -73.57382 | 29973 ft | 457 kts | 225° |
| 2026-05-05 23:13 | 39.76522 | -73.62767 | 29971 ft | 458 kts | 225° |
| 2026-05-05 23:14 | 39.71660 | -73.68151 | 29975 ft | 458 kts | 224° |
| 2026-05-05 23:14 | 39.66834 | -73.73490 | 29966 ft | 457 kts | 224° |
| 2026-05-05 23:15 | 39.61997 | -73.78835 | 29965 ft | 455 kts | 225° |
| 2026-05-05 23:15 | 39.57188 | -73.84136 | 29968 ft | 452 kts | 224° |
| 2026-05-05 23:16 | 39.52393 | -73.89412 | 29974 ft | 451 kts | 224° |
| 2026-05-05 23:16 | 39.47645 | -73.94628 | 29969 ft | 450 kts | 224° |
| 2026-05-05 23:17 | 39.42860 | -73.99874 | 29971 ft | 449 kts | 225° |
| 2026-05-05 23:17 | 39.38086 | -74.05096 | 29973 ft | 449 kts | 224° |
| 2026-05-05 23:18 | 39.33341 | -74.10283 | 29964 ft | 448 kts | 224° |
| 2026-05-05 23:18 | 39.28572 | -74.15495 | 29978 ft | 448 kts | 224° |
| 2026-05-05 23:19 | 39.23800 | -74.20701 | 29975 ft | 448 kts | 224° |
| 2026-05-05 23:19 | 39.19033 | -74.25893 | 29971 ft | 449 kts | 224° |
| 2026-05-05 23:20 | 39.14259 | -74.31080 | 29977 ft | 449 kts | 224° |
| 2026-05-05 23:20 | 39.09686 | -74.36522 | 29918 ft | 444 kts | 237° |
| 2026-05-05 23:21 | 39.07010 | -74.43476 | 29984 ft | 434 kts | 257° |
| 2026-05-05 23:21 | 39.06310 | -74.47272 | 29657 ft | 438 kts | 259° |
| 2026-05-05 23:21 | 39.05627 | -74.51104 | 29142 ft | 437 kts | 259° |
| 2026-05-05 23:22 | 39.04941 | -74.54898 | 28646 ft | 432 kts | 259° |
| 2026-05-05 23:22 | 39.04254 | -74.58641 | 28161 ft | 425 kts | 258° |
| 2026-05-05 23:22 | 39.03578 | -74.62273 | 27701 ft | 420 kts | 258° |
| 2026-05-05 23:22 | 39.02896 | -74.65917 | 27215 ft | 418 kts | 258° |
| 2026-05-05 23:23 | 39.02213 | -74.69543 | 26764 ft | 415 kts | 258° |
| 2026-05-05 23:23 | 39.01534 | -74.73136 | 26312 ft | 412 kts | 257° |
| 2026-05-05 23:23 | 39.00855 | -74.76720 | 25868 ft | 410 kts | 258° |
| 2026-05-05 23:23 | 39.00181 | -74.80275 | 25432 ft | 408 kts | 257° |
| 2026-05-05 23:24 | 38.99515 | -74.83779 | 25010 ft | 406 kts | 257° |
| 2026-05-05 23:24 | 38.98844 | -74.87305 | 24587 ft | 404 kts | 257° |
| 2026-05-05 23:24 | 38.98174 | -74.90818 | 24166 ft | 401 kts | 257° |
| 2026-05-05 23:24 | 38.97510 | -74.94289 | 23750 ft | 398 kts | 257° |
| 2026-05-05 23:25 | 38.96852 | -74.97730 | 23296 ft | 396 kts | 256° |
| 2026-05-05 23:25 | 38.96255 | -75.00845 | 22851 ft | 393 kts | 256° |
| 2026-05-05 23:25 | 38.95612 | -75.04194 | 22379 ft | 388 kts | 256° |
| 2026-05-05 23:25 | 38.94972 | -75.07526 | 21886 ft | 385 kts | 256° |
| 2026-05-05 23:26 | 38.94329 | -75.10860 | 21432 ft | 384 kts | 255° |
| 2026-05-05 23:26 | 38.93687 | -75.14188 | 20980 ft | 382 kts | 255° |
| 2026-05-05 23:26 | 38.93046 | -75.17500 | 20532 ft | 381 kts | 255° |
| 2026-05-05 23:26 | 38.92410 | -75.20788 | 20094 ft | 380 kts | 255° |
| 2026-05-05 23:27 | 38.91774 | -75.24071 | 19660 ft | 378 kts | 255° |
| 2026-05-05 23:27 | 38.91139 | -75.27339 | 19228 ft | 376 kts | 255° |
| 2026-05-05 23:27 | 38.90507 | -75.30587 | 18802 ft | 374 kts | 255° |
| 2026-05-05 23:27 | 38.89877 | -75.33821 | 18391 ft | 372 kts | 255° |
| 2026-05-05 23:28 | 38.89251 | -75.37030 | 17925 ft | 369 kts | 255° |
| 2026-05-05 23:28 | 38.88633 | -75.40190 | 17454 ft | 367 kts | 255° |
| 2026-05-05 23:28 | 38.88015 | -75.43350 | 16974 ft | 364 kts | 255° |
| 2026-05-05 23:28 | 38.87396 | -75.46503 | 16519 ft | 362 kts | 255° |
| 2026-05-05 23:29 | 38.86784 | -75.49623 | 16058 ft | 359 kts | 255° |
| 2026-05-05 23:29 | 38.86175 | -75.52718 | 15601 ft | 357 kts | 255° |
| 2026-05-05 23:29 | 38.85569 | -75.55796 | 15169 ft | 354 kts | 255° |
| 2026-05-05 23:29 | 38.84973 | -75.58817 | 14739 ft | 352 kts | 255° |
| 2026-05-05 23:30 | 38.84375 | -75.61845 | 14305 ft | 349 kts | 255° |
| 2026-05-05 23:30 | 38.83779 | -75.64858 | 13878 ft | 347 kts | 255° |
| 2026-05-05 23:30 | 38.83187 | -75.67847 | 13426 ft | 345 kts | 255° |
| 2026-05-05 23:30 | 38.82597 | -75.70820 | 12952 ft | 342 kts | 255° |
| 2026-05-05 23:31 | 38.82013 | -75.73760 | 12492 ft | 340 kts | 255° |
| 2026-05-05 23:31 | 38.81429 | -75.76695 | 12032 ft | 338 kts | 255° |
| 2026-05-05 23:31 | 38.80849 | -75.79604 | 11603 ft | 335 kts | 255° |
| 2026-05-05 23:31 | 38.80276 | -75.82478 | 11156 ft | 329 kts | 255° |
| 2026-05-05 23:32 | 38.79714 | -75.85294 | 10719 ft | 320 kts | 255° |
| 2026-05-05 23:32 | 38.79171 | -75.88011 | 10282 ft | 310 kts | 255° |
| 2026-05-05 23:32 | 38.78655 | -75.90586 | 10102 ft | 295 kts | 255° |
| 2026-05-05 23:32 | 38.78147 | -75.93120 | 10063 ft | 293 kts | 255° |
| 2026-05-05 23:33 | 38.77642 | -75.95634 | 10046 ft | 291 kts | 255° |
| 2026-05-05 23:33 | 38.77137 | -75.98154 | 10040 ft | 291 kts | 255° |
| 2026-05-05 23:33 | 38.76630 | -76.00675 | 10043 ft | 292 kts | 255° |
| 2026-05-05 23:33 | 38.76121 | -76.03195 | 10044 ft | 292 kts | 255° |
| 2026-05-05 23:34 | 38.75621 | -76.05714 | 10042 ft | 292 kts | 258° |
| 2026-05-05 23:34 | 38.75542 | -76.08307 | 10049 ft | 293 kts | 274° |
| 2026-05-05 23:34 | 38.75845 | -76.10891 | 10039 ft | 294 kts | 277° |
| 2026-05-05 23:34 | 38.76236 | -76.13472 | 10042 ft | 294 kts | 278° |
| 2026-05-05 23:35 | 38.76648 | -76.16048 | 10050 ft | 295 kts | 278° |
| 2026-05-05 23:35 | 38.77053 | -76.18583 | 10042 ft | 295 kts | 278° |
| 2026-05-05 23:35 | 38.77462 | -76.21166 | 10033 ft | 295 kts | 278° |
| 2026-05-05 23:35 | 38.77868 | -76.23755 | 10038 ft | 295 kts | 278° |
| 2026-05-05 23:36 | 38.78269 | -76.26343 | 10035 ft | 296 kts | 278° |
| 2026-05-05 23:36 | 38.78669 | -76.28933 | 10037 ft | 296 kts | 278° |
| 2026-05-05 23:36 | 38.79067 | -76.31522 | 10041 ft | 296 kts | 278° |
| 2026-05-05 23:36 | 38.79459 | -76.34082 | 10027 ft | 296 kts | 278° |
| 2026-05-05 23:37 | 38.79855 | -76.36674 | 10039 ft | 296 kts | 278° |
| 2026-05-05 23:37 | 38.80251 | -76.39275 | 10031 ft | 296 kts | 278° |
| 2026-05-05 23:37 | 38.80643 | -76.41858 | 10024 ft | 296 kts | 278° |
| 2026-05-05 23:37 | 38.81036 | -76.44448 | 10033 ft | 295 kts | 278° |
| 2026-05-05 23:38 | 38.81427 | -76.47033 | 10017 ft | 295 kts | 278° |
| 2026-05-05 23:38 | 38.81819 | -76.49629 | 10012 ft | 295 kts | 278° |
| 2026-05-05 23:38 | 38.82209 | -76.52207 | 10002 ft | 289 kts | 278° |
| 2026-05-05 23:38 | 38.82576 | -76.54628 | 9991 ft | 271 kts | 277° |
| 2026-05-05 23:39 | 38.82929 | -76.56968 | 9637 ft | 265 kts | 277° |
| 2026-05-05 23:39 | 38.83273 | -76.59265 | 9203 ft | 258 kts | 277° |
| 2026-05-05 23:39 | 38.83608 | -76.61489 | 8750 ft | 248 kts | 276° |
| 2026-05-05 23:39 | 38.83930 | -76.63636 | 8281 ft | 241 kts | 276° |
| 2026-05-05 23:40 | 38.84241 | -76.65712 | 7834 ft | 233 kts | 275° |
| 2026-05-05 23:40 | 38.84542 | -76.67722 | 7402 ft | 226 kts | 275° |
| 2026-05-05 23:40 | 38.84833 | -76.69679 | 6966 ft | 226 kts | 274° |
| 2026-05-05 23:40 | 38.85127 | -76.71659 | 6538 ft | 225 kts | 273° |
| 2026-05-05 23:41 | 38.85420 | -76.73635 | 6126 ft | 224 kts | 273° |
| 2026-05-05 23:41 | 38.85706 | -76.75541 | 6028 ft | 212 kts | 272° |
| 2026-05-05 23:41 | 38.85980 | -76.77388 | 6005 ft | 211 kts | 272° |
| 2026-05-05 23:41 | 38.86255 | -76.79251 | 6012 ft | 213 kts | 272° |
| 2026-05-05 23:42 | 38.86532 | -76.81122 | 6006 ft | 212 kts | 272° |
| 2026-05-05 23:42 | 38.86805 | -76.82970 | 6007 ft | 210 kts | 272° |
| 2026-05-05 23:42 | 38.87076 | -76.84809 | 5992 ft | 209 kts | 273° |
| 2026-05-05 23:42 | 38.87342 | -76.86615 | 6000 ft | 207 kts | 272° |
| 2026-05-05 23:43 | 38.87610 | -76.88431 | 6019 ft | 207 kts | 273° |
| 2026-05-05 23:43 | 38.88191 | -76.90178 | 6014 ft | 221 kts | 298° |
| 2026-05-05 23:43 | 38.89237 | -76.91665 | 6004 ft | 227 kts | 305° |
| 2026-05-05 23:43 | 38.90370 | -76.93107 | 6022 ft | 229 kts | 307° |
| 2026-05-05 23:44 | 38.91483 | -76.94500 | 6001 ft | 223 kts | 306° |
| 2026-05-05 23:44 | 38.92577 | -76.95873 | 5999 ft | 218 kts | 305° |
| 2026-05-05 23:44 | 38.93663 | -76.97247 | 6012 ft | 220 kts | 306° |
| 2026-05-05 23:44 | 38.94760 | -76.98644 | 6020 ft | 223 kts | 306° |
| 2026-05-05 23:45 | 38.95872 | -77.00061 | 6020 ft | 226 kts | 306° |
| 2026-05-05 23:45 | 38.96978 | -77.01469 | 5998 ft | 222 kts | 305° |
| 2026-05-05 23:45 | 38.98064 | -77.02852 | 5990 ft | 218 kts | 305° |
| 2026-05-05 23:45 | 38.99142 | -77.04232 | 6002 ft | 219 kts | 305° |
| 2026-05-05 23:46 | 39.00219 | -77.05614 | 6011 ft | 219 kts | 306° |
| 2026-05-05 23:46 | 39.01301 | -77.07004 | 5878 ft | 223 kts | 306° |
| 2026-05-05 23:46 | 39.02423 | -77.08450 | 5404 ft | 229 kts | 306° |
| 2026-05-05 23:46 | 39.03562 | -77.09851 | 4962 ft | 232 kts | 310° |
| 2026-05-05 23:47 | 39.04791 | -77.11209 | 4540 ft | 232 kts | 310° |
| 2026-05-05 23:47 | 39.06012 | -77.12571 | 4103 ft | 233 kts | 310° |
| 2026-05-05 23:47 | 39.07211 | -77.13968 | 3661 ft | 232 kts | 307° |
| 2026-05-05 23:47 | 39.07981 | -77.14927 | 3371 ft | 232 kts | 307° |
| 2026-05-05 23:48 | 39.09470 | -77.16850 | 3066 ft | 216 kts | 299° |
| 2026-05-05 23:48 | 39.10046 | -77.18440 | 3010 ft | 179 kts | 266° |
| 2026-05-05 23:48 | 39.09986 | -77.19463 | 3014 ft | 165 kts | 250° |
| 2026-05-05 23:48 | 39.09531 | -77.20750 | 3013 ft | 157 kts | 229° |
| 2026-05-05 23:49 | 39.08712 | -77.21651 | 3017 ft | 159 kts | 208° |
| 2026-05-05 23:49 | 39.07616 | -77.22046 | 2779 ft | 172 kts | 189° |
| 2026-05-05 23:49 | 39.06441 | -77.21823 | 2728 ft | 176 kts | 166° |
| 2026-05-05 23:49 | 39.05344 | -77.21106 | 2725 ft | 174 kts | 163° |
| 2026-05-05 23:50 | 39.04305 | -77.20425 | 2729 ft | 163 kts | 163° |
| 2026-05-05 23:50 | 39.03322 | -77.19781 | 2712 ft | 155 kts | 164° |
| 2026-05-05 23:50 | 39.02369 | -77.19158 | 2707 ft | 152 kts | 162° |
| 2026-05-05 23:50 | 39.01448 | -77.18555 | 2710 ft | 150 kts | 163° |
| 2026-05-05 23:51 | 39.00515 | -77.17944 | 2709 ft | 150 kts | 164° |
| 2026-05-05 23:51 | 38.99579 | -77.17331 | 2700 ft | 153 kts | 163° |
| 2026-05-05 23:51 | 38.98611 | -77.16697 | 2704 ft | 157 kts | 162° |
| 2026-05-05 23:51 | 38.97649 | -77.16063 | 2700 ft | 153 kts | 164° |
| 2026-05-05 23:52 | 38.96707 | -77.15446 | 2703 ft | 151 kts | 165° |
| 2026-05-05 23:52 | 38.95820 | -77.14619 | 2541 ft | 164 kts | 147° |
| 2026-05-05 23:52 | 38.94968 | -77.13651 | 2362 ft | 164 kts | 148° |
| 2026-05-05 23:52 | 38.94113 | -77.12690 | 2133 ft | 163 kts | 146° |
| 2026-05-05 23:53 | 38.93257 | -77.11731 | 1958 ft | 167 kts | 152° |
| 2026-05-05 23:53 | 38.92306 | -77.10905 | 1782 ft | 164 kts | 155° |
| 2026-05-05 23:53 | 38.91360 | -77.10121 | 1510 ft | 163 kts | 150° |
| 2026-05-05 23:53 | 38.90646 | -77.08883 | 1151 ft | 179 kts | 127° |
| 2026-05-05 23:54 | 38.90104 | -77.07553 | 1057 ft | 156 kts | 125° |
| 2026-05-05 23:54 | 38.89509 | -77.06447 | 829 ft | 144 kts | 137° |
| 2026-05-05 23:54 | 38.88848 | -77.05541 | 632 ft | 137 kts | 147° |
| 2026-05-05 23:54 | 38.88123 | -77.04712 | 559 ft | 143 kts | 148° |
| 2026-05-05 23:55 | 38.87300 | -77.04099 | 352 ft | 136 kts | 166° |
| 2026-05-05 23:55 | 38.86391 | -77.03874 | 111 ft | 130 kts | 181° |
| 2026-05-05 23:55 | 38.85549 | -77.03833 | 26 ft | 112 kts | 174° |
| 2026-05-05 23:55 | 38.85095 | -77.03788 | 24 ft | 23 kts | 174° |
| 2026-05-05 23:56 | 38.84927 | -77.03784 | 22 ft | 8 kts | 199° |
| 2026-05-05 23:56 | 38.84900 | -77.03805 | 24 ft | 5 kts | 221° |
| 2026-05-05 23:56 | 38.84882 | -77.03847 | 22 ft | 5 kts | 256° |
| 2026-05-05 23:56 | 38.84882 | -77.03895 | 23 ft | 5 kts | 282° |
| 2026-05-05 23:57 | 38.84903 | -77.03933 | 24 ft | 5 kts | 320° |
| 2026-05-05 23:57 | 38.84936 | -77.03950 | 24 ft | 5 kts | 345° |
| 2026-05-05 23:57 | 38.84988 | -77.03960 | 23 ft | 11 kts | 354° |
| 2026-05-05 23:57 | 38.85077 | -77.03969 | 23 ft | 14 kts | 355° |
| 2026-05-05 23:58 | 38.85177 | -77.03978 | 25 ft | 15 kts | 355° |
| 2026-05-05 23:58 | 38.85272 | -77.03990 | 25 ft | 12 kts | 358° |
| 2026-05-05 23:58 | 38.85365 | -77.03998 | 23 ft | 14 kts | 355° |
| 2026-05-05 23:58 | 38.85444 | -77.04007 | 27 ft | 8 kts | 354° |
| 2026-05-05 23:59 | 38.85493 | -77.04030 | 23 ft | 8 kts | 317° |
| 2026-05-05 23:59 | 38.85497 | -77.04089 | 25 ft | 7 kts | 232° |
| 2026-05-05 23:59 | 38.85482 | -77.04105 | 23 ft | 0 kts | 219° |
| 2026-05-05 23:59 | 38.85481 | -77.04106 | 23 ft | 0 kts | 219° |